AIRPORT ID: 9D1

DATE: 2024-07-20 ZULU TIME: 3.55 LOCAL TIME: 22.55


METAR K9D1 200355Z AUTO 00000KT 10SM 19/17 A3006

ALTIMETER: A3006 Q1018

DENSITY ALT: 2900 Ft

WIND DIRECT: 150

WIND SPEED: 0 Gust

WIND CONDITIONS:

VISIBILTY: 10SM 9999M

TEMPERATURE: 66 F 19 C

DEW POINT: 63 F 17 C

HUMID: 91%

LCL: 500-1,000 feet

RADIO CHECK: 0

ADVISARIES: 0

GREETINGS: 0

CONVERSATIONS: 0